ETH861 FWKI-HAAB
Flight info
| Callsign | ETH861 |
|---|---|
| Flight time | 3h 32m |
| Altitude | 37000 |
| Route | IMKAL1E IMKAL UM315 LOSIN UM441 ETUNU/N0447F390 UM441 LOTAS/N0447F380 UM308 RUDOL RUDOL2A |
| Aircraft | B737/M-SDE2E3FGHIRWXY/LB1 |
Departure
| Time | 2026-04-20 17:50 |
|---|---|
| Airport | Kamuzu International Airport (FWKI) |
Arrival
| Time | 2026-04-20 21:23 |
|---|---|
| Airport | Addis Ababa Bole International Airport (HAAB) |
| Time | Latitude | Longitude | Altitude | Speed | Heading |
|---|---|---|---|---|---|
| 2026-04-20 17:32 | -13.78136 | 33.77774 | 4034 ft | 0 kts | 115° |
| 2026-04-20 17:45 | -13.78139 | 33.77780 | 4034 ft | 2 kts | 115° |
| 2026-04-20 17:45 | -13.78152 | 33.77806 | 4034 ft | 5 kts | 123° |
| 2026-04-20 17:45 | -13.78174 | 33.77829 | 4034 ft | 5 kts | 140° |
| 2026-04-20 17:45 | -13.78200 | 33.77847 | 4034 ft | 5 kts | 156° |
| 2026-04-20 17:46 | -13.78230 | 33.77844 | 4034 ft | 4 kts | 205° |
| 2026-04-20 17:46 | -13.78257 | 33.77827 | 4034 ft | 4 kts | 214° |
| 2026-04-20 17:46 | -13.78283 | 33.77806 | 4034 ft | 5 kts | 219° |
| 2026-04-20 17:46 | -13.78320 | 33.77776 | 4034 ft | 8 kts | 217° |
| 2026-04-20 17:47 | -13.78365 | 33.77728 | 4034 ft | 11 kts | 249° |
| 2026-04-20 17:47 | -13.78335 | 33.77654 | 4033 ft | 13 kts | 310° |
| 2026-04-20 17:47 | -13.78272 | 33.77577 | 4033 ft | 15 kts | 309° |
| 2026-04-20 17:47 | -13.78201 | 33.77489 | 4034 ft | 17 kts | 313° |
| 2026-04-20 17:48 | -13.78122 | 33.77391 | 4033 ft | 18 kts | 307° |
| 2026-04-20 17:48 | -13.78042 | 33.77290 | 4034 ft | 18 kts | 310° |
| 2026-04-20 17:48 | -13.77964 | 33.77195 | 4034 ft | 17 kts | 309° |
| 2026-04-20 17:48 | -13.77888 | 33.77102 | 4034 ft | 17 kts | 310° |
| 2026-04-20 17:49 | -13.77821 | 33.77009 | 4035 ft | 16 kts | 290° |
| 2026-04-20 17:49 | -13.77854 | 33.76909 | 4035 ft | 15 kts | 219° |
| 2026-04-20 17:49 | -13.77950 | 33.76903 | 4035 ft | 15 kts | 143° |
| 2026-04-20 17:49 | -13.78054 | 33.77026 | 4034 ft | 48 kts | 130° |
| 2026-04-20 17:50 | -13.78442 | 33.77500 | 4032 ft | 123 kts | 130° |
| 2026-04-20 17:50 | -13.79130 | 33.78334 | 4111 ft | 174 kts | 130° |
| 2026-04-20 17:50 | -13.79925 | 33.79332 | 4773 ft | 189 kts | 129° |
| 2026-04-20 17:50 | -13.80796 | 33.80393 | 5604 ft | 197 kts | 130° |
| 2026-04-20 17:51 | -13.81516 | 33.81623 | 6374 ft | 208 kts | 114° |
| 2026-04-20 17:51 | -13.82094 | 33.83045 | 7001 ft | 218 kts | 112° |
| 2026-04-20 17:51 | -13.82605 | 33.84538 | 7668 ft | 228 kts | 110° |
| 2026-04-20 17:51 | -13.82997 | 33.86193 | 8067 ft | 254 kts | 95° |
| 2026-04-20 17:52 | -13.82830 | 33.88076 | 8528 ft | 276 kts | 68° |
| 2026-04-20 17:52 | -13.81657 | 33.89665 | 9044 ft | 288 kts | 34° |
| 2026-04-20 17:52 | -13.79773 | 33.90409 | 9475 ft | 293 kts | 9° |
| 2026-04-20 17:52 | -13.77791 | 33.90759 | 10631 ft | 290 kts | 8° |
| 2026-04-20 17:53 | -13.75734 | 33.91114 | 11096 ft | 313 kts | 9° |
| 2026-04-20 17:53 | -13.73494 | 33.91523 | 11402 ft | 338 kts | 9° |
| 2026-04-20 17:53 | -13.71146 | 33.91981 | 12123 ft | 347 kts | 10° |
| 2026-04-20 17:53 | -13.68753 | 33.92468 | 13010 ft | 351 kts | 11° |
| 2026-04-20 17:54 | -13.66346 | 33.92974 | 13912 ft | 355 kts | 11° |
| 2026-04-20 17:54 | -13.63908 | 33.93498 | 14796 ft | 360 kts | 11° |
| 2026-04-20 17:54 | -13.61443 | 33.94035 | 15678 ft | 365 kts | 11° |
| 2026-04-20 17:54 | -13.58946 | 33.94584 | 16540 ft | 369 kts | 11° |
| 2026-04-20 17:55 | -13.56416 | 33.95143 | 17381 ft | 374 kts | 11° |
| 2026-04-20 17:55 | -13.53853 | 33.95708 | 18202 ft | 379 kts | 11° |
| 2026-04-20 17:55 | -13.51261 | 33.96280 | 18981 ft | 383 kts | 11° |
| 2026-04-20 17:55 | -13.48639 | 33.96860 | 19735 ft | 388 kts | 11° |
| 2026-04-20 17:56 | -13.45986 | 33.97449 | 20486 ft | 392 kts | 11° |
| 2026-04-20 17:56 | -13.43301 | 33.98046 | 21210 ft | 397 kts | 11° |
| 2026-04-20 17:56 | -13.40589 | 33.98648 | 21903 ft | 401 kts | 12° |
| 2026-04-20 17:56 | -13.37845 | 33.99254 | 22573 ft | 405 kts | 11° |
| 2026-04-20 17:57 | -13.35072 | 33.99864 | 23221 ft | 410 kts | 11° |
| 2026-04-20 17:57 | -13.32278 | 34.00480 | 23849 ft | 414 kts | 11° |
| 2026-04-20 17:57 | -13.29453 | 34.01108 | 24467 ft | 418 kts | 12° |
| 2026-04-20 17:57 | -13.26596 | 34.01744 | 25062 ft | 421 kts | 12° |
| 2026-04-20 17:58 | -13.23716 | 34.02387 | 25632 ft | 425 kts | 12° |
| 2026-04-20 17:58 | -13.20810 | 34.03034 | 26189 ft | 429 kts | 12° |
| 2026-04-20 17:58 | -13.17920 | 34.03675 | 26702 ft | 432 kts | 12° |
| 2026-04-20 17:58 | -13.14963 | 34.04329 | 27209 ft | 436 kts | 12° |
| 2026-04-20 17:59 | -13.11989 | 34.04987 | 27701 ft | 439 kts | 11° |
| 2026-04-20 17:59 | -13.08986 | 34.05643 | 28177 ft | 443 kts | 11° |
| 2026-04-20 17:59 | -13.05963 | 34.06305 | 28640 ft | 446 kts | 12° |
| 2026-04-20 17:59 | -13.02917 | 34.06980 | 29082 ft | 449 kts | 12° |
| 2026-04-20 18:00 | -12.99856 | 34.07659 | 29485 ft | 453 kts | 12° |
| 2026-04-20 18:00 | -12.96758 | 34.08344 | 29848 ft | 457 kts | 11° |
| 2026-04-20 18:00 | -12.93646 | 34.09028 | 30295 ft | 458 kts | 11° |
| 2026-04-20 18:00 | -12.90517 | 34.09716 | 30717 ft | 460 kts | 12° |
| 2026-04-20 18:01 | -12.87379 | 34.10407 | 31114 ft | 462 kts | 12° |
| 2026-04-20 18:01 | -12.84239 | 34.11102 | 31587 ft | 462 kts | 11° |
| 2026-04-20 18:01 | -12.81107 | 34.11793 | 32116 ft | 459 kts | 11° |
| 2026-04-20 18:01 | -12.77989 | 34.12476 | 32630 ft | 457 kts | 11° |
| 2026-04-20 18:02 | -12.74878 | 34.13159 | 33065 ft | 457 kts | 11° |
| 2026-04-20 18:02 | -12.71771 | 34.13844 | 33469 ft | 457 kts | 11° |
| 2026-04-20 18:02 | -12.68667 | 34.14530 | 33891 ft | 456 kts | 12° |
| 2026-04-20 18:02 | -12.65571 | 34.15215 | 34316 ft | 455 kts | 12° |
| 2026-04-20 18:03 | -12.62481 | 34.15899 | 34709 ft | 454 kts | 12° |
| 2026-04-20 18:03 | -12.59397 | 34.16580 | 35083 ft | 453 kts | 12° |
| 2026-04-20 18:03 | -12.56312 | 34.17259 | 35447 ft | 453 kts | 11° |
| 2026-04-20 18:03 | -12.53230 | 34.17935 | 35811 ft | 452 kts | 11° |
| 2026-04-20 18:04 | -12.50159 | 34.18604 | 36153 ft | 451 kts | 11° |
| 2026-04-20 18:04 | -12.47088 | 34.19274 | 36458 ft | 451 kts | 11° |
| 2026-04-20 18:04 | -12.44023 | 34.19946 | 36731 ft | 452 kts | 11° |
| 2026-04-20 18:04 | -12.40949 | 34.20623 | 37009 ft | 452 kts | 12° |
| 2026-04-20 18:05 | -12.34742 | 34.21996 | 37077 ft | 458 kts | 12° |
| 2026-04-20 18:05 | -12.28541 | 34.23360 | 37061 ft | 452 kts | 12° |
| 2026-04-20 18:06 | -12.22424 | 34.24702 | 37077 ft | 449 kts | 12° |
| 2026-04-20 18:06 | -12.16301 | 34.26040 | 37078 ft | 449 kts | 11° |
| 2026-04-20 18:07 | -12.10190 | 34.27373 | 37076 ft | 449 kts | 11° |
| 2026-04-20 18:07 | -12.04076 | 34.28708 | 37075 ft | 450 kts | 11° |
| 2026-04-20 18:08 | -11.97955 | 34.30059 | 37073 ft | 450 kts | 12° |
| 2026-04-20 18:08 | -11.91868 | 34.31398 | 37076 ft | 450 kts | 12° |
| 2026-04-20 18:09 | -11.85735 | 34.32739 | 37075 ft | 451 kts | 12° |
| 2026-04-20 18:09 | -11.79602 | 34.34079 | 37074 ft | 451 kts | 12° |
| 2026-04-20 18:10 | -11.73464 | 34.35420 | 37074 ft | 451 kts | 12° |
| 2026-04-20 18:10 | -11.67319 | 34.36763 | 37074 ft | 452 kts | 12° |
| 2026-04-20 18:11 | -11.61167 | 34.38106 | 37075 ft | 452 kts | 12° |
| 2026-04-20 18:11 | -11.55017 | 34.39449 | 37073 ft | 452 kts | 12° |
| 2026-04-20 18:12 | -11.49906 | 34.40564 | 37075 ft | 452 kts | 12° |
| 2026-04-20 18:12 | -11.43748 | 34.41908 | 37074 ft | 452 kts | 12° |
| 2026-04-20 18:13 | -11.37595 | 34.43268 | 37072 ft | 452 kts | 13° |
| 2026-04-20 18:13 | -11.31505 | 34.44901 | 37076 ft | 453 kts | 15° |
| 2026-04-20 18:14 | -11.25430 | 34.46584 | 37073 ft | 453 kts | 14° |
| 2026-04-20 18:14 | -11.19344 | 34.48221 | 37074 ft | 452 kts | 14° |
| 2026-04-20 18:15 | -11.13241 | 34.49805 | 37073 ft | 452 kts | 13° |
| 2026-04-20 18:15 | -11.07119 | 34.51272 | 37075 ft | 452 kts | 13° |
| 2026-04-20 18:16 | -11.00988 | 34.52733 | 37073 ft | 452 kts | 13° |
| 2026-04-20 18:16 | -10.94864 | 34.54207 | 37074 ft | 452 kts | 13° |
| 2026-04-20 18:17 | -10.88750 | 34.55686 | 37075 ft | 452 kts | 13° |
| 2026-04-20 18:17 | -10.82628 | 34.57167 | 37074 ft | 452 kts | 13° |
| 2026-04-20 18:18 | -10.76514 | 34.58645 | 37074 ft | 452 kts | 13° |
| 2026-04-20 18:18 | -10.70398 | 34.60123 | 37074 ft | 452 kts | 13° |
| 2026-04-20 18:19 | -10.64286 | 34.61599 | 37074 ft | 452 kts | 13° |
| 2026-04-20 18:19 | -10.58174 | 34.63075 | 37079 ft | 452 kts | 13° |
| 2026-04-20 18:20 | -10.52061 | 34.64587 | 37071 ft | 452 kts | 14° |
| 2026-04-20 18:20 | -10.45973 | 34.66180 | 37074 ft | 452 kts | 13° |
| 2026-04-20 18:21 | -10.39888 | 34.67773 | 37074 ft | 452 kts | 13° |
| 2026-04-20 18:21 | -10.33843 | 34.69354 | 37074 ft | 451 kts | 13° |
| 2026-04-20 18:22 | -10.27762 | 34.70940 | 37074 ft | 451 kts | 13° |
| 2026-04-20 18:22 | -10.21680 | 34.72523 | 37073 ft | 451 kts | 13° |
| 2026-04-20 18:23 | -10.15597 | 34.74107 | 37074 ft | 451 kts | 13° |
| 2026-04-20 18:23 | -10.09521 | 34.75687 | 37077 ft | 451 kts | 13° |
| 2026-04-20 18:24 | -10.03450 | 34.77266 | 37071 ft | 451 kts | 13° |
| 2026-04-20 18:24 | -9.97361 | 34.78849 | 37075 ft | 451 kts | 13° |
| 2026-04-20 18:25 | -9.91285 | 34.80428 | 37074 ft | 451 kts | 13° |
| 2026-04-20 18:25 | -9.85201 | 34.82009 | 37073 ft | 451 kts | 13° |
| 2026-04-20 18:26 | -9.79121 | 34.83588 | 37071 ft | 451 kts | 13° |
| 2026-04-20 18:26 | -9.73039 | 34.85167 | 37074 ft | 451 kts | 13° |
| 2026-04-20 18:27 | -9.66956 | 34.86745 | 37073 ft | 451 kts | 13° |
| 2026-04-20 18:27 | -9.60874 | 34.88323 | 37073 ft | 451 kts | 13° |
| 2026-04-20 18:28 | -9.54795 | 34.89900 | 37074 ft | 451 kts | 13° |
| 2026-04-20 18:28 | -9.48713 | 34.91478 | 37077 ft | 451 kts | 13° |
| 2026-04-20 18:29 | -9.42668 | 34.93046 | 37072 ft | 451 kts | 13° |
| 2026-04-20 18:29 | -9.36585 | 34.94625 | 37074 ft | 451 kts | 13° |
| 2026-04-20 18:30 | -9.30501 | 34.96199 | 37074 ft | 451 kts | 13° |
| 2026-04-20 18:30 | -9.24402 | 34.97734 | 37074 ft | 451 kts | 13° |
| 2026-04-20 18:31 | -9.18304 | 34.99252 | 37074 ft | 451 kts | 13° |
| 2026-04-20 18:31 | -9.12203 | 35.00777 | 37074 ft | 451 kts | 13° |
| 2026-04-20 18:32 | -9.06111 | 35.02305 | 37073 ft | 451 kts | 13° |
| 2026-04-20 18:32 | -9.00016 | 35.03835 | 37074 ft | 451 kts | 13° |
| 2026-04-20 18:33 | -8.93942 | 35.05360 | 37072 ft | 451 kts | 13° |
| 2026-04-20 18:33 | -8.87839 | 35.06890 | 37074 ft | 451 kts | 13° |
| 2026-04-20 18:34 | -8.81751 | 35.08415 | 37074 ft | 451 kts | 13° |
| 2026-04-20 18:34 | -8.75658 | 35.09943 | 37073 ft | 451 kts | 13° |
| 2026-04-20 18:35 | -8.69568 | 35.11470 | 37073 ft | 451 kts | 13° |
| 2026-04-20 18:35 | -8.63478 | 35.12998 | 37076 ft | 451 kts | 13° |
| 2026-04-20 18:36 | -8.57380 | 35.14524 | 37073 ft | 451 kts | 13° |
| 2026-04-20 18:36 | -8.51289 | 35.16049 | 37074 ft | 451 kts | 13° |
| 2026-04-20 18:37 | -8.45202 | 35.17577 | 37074 ft | 451 kts | 13° |
| 2026-04-20 18:37 | -8.39115 | 35.19107 | 37074 ft | 451 kts | 13° |
| 2026-04-20 18:38 | -8.33027 | 35.20637 | 37073 ft | 451 kts | 13° |
| 2026-04-20 18:38 | -8.26976 | 35.22158 | 37075 ft | 451 kts | 13° |
| 2026-04-20 18:39 | -8.20894 | 35.23686 | 37074 ft | 451 kts | 13° |
| 2026-04-20 18:39 | -8.14810 | 35.25214 | 37074 ft | 451 kts | 13° |
| 2026-04-20 18:40 | -8.08685 | 35.26752 | 37072 ft | 451 kts | 13° |
| 2026-04-20 18:40 | -8.02638 | 35.28270 | 37076 ft | 451 kts | 13° |
| 2026-04-20 18:41 | -7.96554 | 35.29796 | 37073 ft | 451 kts | 13° |
| 2026-04-20 18:41 | -7.90466 | 35.31323 | 37076 ft | 451 kts | 13° |
| 2026-04-20 18:42 | -7.84383 | 35.32849 | 37076 ft | 451 kts | 13° |
| 2026-04-20 18:42 | -7.78294 | 35.34375 | 37073 ft | 451 kts | 13° |
| 2026-04-20 18:43 | -7.72204 | 35.35902 | 37073 ft | 451 kts | 13° |
| 2026-04-20 18:43 | -7.66122 | 35.37426 | 37075 ft | 451 kts | 13° |
| 2026-04-20 18:44 | -7.60034 | 35.38950 | 37075 ft | 451 kts | 13° |
| 2026-04-20 18:44 | -7.53948 | 35.40474 | 37073 ft | 450 kts | 13° |
| 2026-04-20 18:45 | -7.47869 | 35.41996 | 37073 ft | 450 kts | 13° |
| 2026-04-20 18:45 | -7.41782 | 35.43519 | 37073 ft | 450 kts | 13° |
| 2026-04-20 18:46 | -7.35701 | 35.45041 | 37075 ft | 450 kts | 13° |
| 2026-04-20 18:46 | -7.29618 | 35.46563 | 37073 ft | 450 kts | 13° |
| 2026-04-20 18:47 | -7.23536 | 35.48083 | 37075 ft | 450 kts | 13° |
| 2026-04-20 18:47 | -7.17458 | 35.49603 | 37073 ft | 450 kts | 13° |
| 2026-04-20 18:48 | -7.11375 | 35.51123 | 37074 ft | 450 kts | 13° |
| 2026-04-20 18:48 | -7.05290 | 35.52643 | 37074 ft | 450 kts | 13° |
| 2026-04-20 18:49 | -6.99208 | 35.54162 | 37074 ft | 450 kts | 13° |
| 2026-04-20 18:49 | -6.93127 | 35.55681 | 37074 ft | 450 kts | 13° |
| 2026-04-20 18:50 | -6.87045 | 35.57200 | 37074 ft | 450 kts | 13° |
| 2026-04-20 18:50 | -6.80962 | 35.58718 | 37074 ft | 450 kts | 13° |
| 2026-04-20 18:51 | -6.74883 | 35.60235 | 37074 ft | 450 kts | 13° |
| 2026-04-20 18:51 | -6.68796 | 35.61754 | 37074 ft | 450 kts | 13° |
| 2026-04-20 18:52 | -6.62718 | 35.63270 | 37074 ft | 450 kts | 13° |
| 2026-04-20 18:52 | -6.56629 | 35.64788 | 37073 ft | 450 kts | 13° |
| 2026-04-20 18:53 | -6.50547 | 35.66305 | 37073 ft | 450 kts | 13° |
| 2026-04-20 18:53 | -6.44469 | 35.67820 | 37075 ft | 450 kts | 13° |
| 2026-04-20 18:54 | -6.38427 | 35.69326 | 37074 ft | 450 kts | 13° |
| 2026-04-20 18:54 | -6.32345 | 35.70843 | 37074 ft | 450 kts | 13° |
| 2026-04-20 18:55 | -6.26266 | 35.72360 | 37074 ft | 450 kts | 13° |
| 2026-04-20 18:55 | -6.20181 | 35.73877 | 37075 ft | 450 kts | 13° |
| 2026-04-20 18:56 | -6.14059 | 35.75178 | 37077 ft | 450 kts | 7° |
| 2026-04-20 18:56 | -6.07847 | 35.75902 | 37076 ft | 449 kts | 5° |
| 2026-04-20 18:57 | -6.01627 | 35.76579 | 37074 ft | 449 kts | 6° |
| 2026-04-20 18:57 | -5.95416 | 35.77312 | 37073 ft | 450 kts | 6° |
| 2026-04-20 18:58 | -5.89207 | 35.78072 | 37075 ft | 450 kts | 6° |
| 2026-04-20 18:58 | -5.84045 | 35.78708 | 37074 ft | 450 kts | 6° |
| 2026-04-20 18:59 | -5.77833 | 35.79470 | 37074 ft | 450 kts | 6° |
| 2026-04-20 18:59 | -5.71622 | 35.80233 | 37075 ft | 450 kts | 6° |
| 2026-04-20 19:00 | -5.65414 | 35.80992 | 37075 ft | 450 kts | 6° |
| 2026-04-20 19:00 | -5.59205 | 35.81759 | 37072 ft | 450 kts | 6° |
| 2026-04-20 19:01 | -5.52997 | 35.82533 | 37076 ft | 449 kts | 6° |
| 2026-04-20 19:01 | -5.46786 | 35.83310 | 37073 ft | 450 kts | 6° |
| 2026-04-20 19:02 | -5.40582 | 35.84086 | 37074 ft | 449 kts | 6° |
| 2026-04-20 19:02 | -5.34373 | 35.84858 | 37075 ft | 449 kts | 6° |
| 2026-04-20 19:03 | -5.28163 | 35.85626 | 37073 ft | 449 kts | 6° |
| 2026-04-20 19:03 | -5.21957 | 35.86397 | 37073 ft | 449 kts | 6° |
| 2026-04-20 19:04 | -5.15751 | 35.87170 | 37073 ft | 449 kts | 6° |
| 2026-04-20 19:04 | -5.09545 | 35.87944 | 37073 ft | 449 kts | 6° |
| 2026-04-20 19:05 | -5.03339 | 35.88718 | 37074 ft | 449 kts | 6° |
| 2026-04-20 19:05 | -4.97172 | 35.89487 | 37074 ft | 449 kts | 6° |
| 2026-04-20 19:06 | -4.90968 | 35.90260 | 37074 ft | 449 kts | 6° |
| 2026-04-20 19:06 | -4.84748 | 35.91043 | 37072 ft | 449 kts | 7° |
| 2026-04-20 19:07 | -4.78541 | 35.91825 | 37074 ft | 450 kts | 6° |
| 2026-04-20 19:07 | -4.72329 | 35.92587 | 37075 ft | 450 kts | 6° |
| 2026-04-20 19:08 | -4.63018 | 35.93749 | 37075 ft | 449 kts | 6° |
| 2026-04-20 19:09 | -4.56811 | 35.94524 | 37074 ft | 449 kts | 6° |
| 2026-04-20 19:09 | -4.50605 | 35.95298 | 37074 ft | 449 kts | 6° |
| 2026-04-20 19:10 | -4.44397 | 35.96065 | 37074 ft | 449 kts | 6° |
| 2026-04-20 19:10 | -4.38194 | 35.96819 | 37073 ft | 449 kts | 6° |
| 2026-04-20 19:11 | -4.32030 | 35.97569 | 37073 ft | 449 kts | 6° |
| 2026-04-20 19:11 | -4.25821 | 35.98327 | 37074 ft | 449 kts | 6° |
| 2026-04-20 19:12 | -4.19622 | 35.99085 | 37074 ft | 449 kts | 6° |
| 2026-04-20 19:12 | -4.13422 | 35.99843 | 37076 ft | 449 kts | 6° |
| 2026-04-20 19:13 | -4.07221 | 36.00601 | 37074 ft | 449 kts | 6° |
| 2026-04-20 19:13 | -4.01020 | 36.01359 | 37074 ft | 449 kts | 6° |
| 2026-04-20 19:14 | -3.94819 | 36.02117 | 37076 ft | 449 kts | 6° |
| 2026-04-20 19:14 | -3.88622 | 36.02875 | 37073 ft | 449 kts | 6° |
| 2026-04-20 19:15 | -3.82420 | 36.03633 | 37074 ft | 449 kts | 6° |
| 2026-04-20 19:15 | -3.76218 | 36.04392 | 37075 ft | 449 kts | 6° |
| 2026-04-20 19:16 | -3.70025 | 36.05149 | 37075 ft | 449 kts | 6° |
| 2026-04-20 19:16 | -3.63828 | 36.05913 | 37073 ft | 449 kts | 6° |
| 2026-04-20 19:17 | -3.57627 | 36.06691 | 37074 ft | 449 kts | 6° |
| 2026-04-20 19:17 | -3.51425 | 36.07472 | 37073 ft | 449 kts | 6° |
| 2026-04-20 19:18 | -3.45271 | 36.08246 | 37073 ft | 449 kts | 6° |
| 2026-04-20 19:18 | -3.39041 | 36.09029 | 37076 ft | 449 kts | 6° |
| 2026-04-20 19:19 | -3.32833 | 36.09808 | 37070 ft | 449 kts | 6° |
| 2026-04-20 19:19 | -3.26635 | 36.10588 | 37075 ft | 449 kts | 6° |
| 2026-04-20 19:20 | -3.20477 | 36.11361 | 37074 ft | 449 kts | 6° |
| 2026-04-20 19:20 | -3.14273 | 36.12097 | 37075 ft | 449 kts | 6° |
| 2026-04-20 19:21 | -3.08065 | 36.12744 | 37074 ft | 449 kts | 5° |
| 2026-04-20 19:21 | -3.01854 | 36.13349 | 37074 ft | 448 kts | 5° |
| 2026-04-20 19:22 | -2.95638 | 36.13964 | 37074 ft | 449 kts | 5° |
| 2026-04-20 19:22 | -2.89427 | 36.14586 | 37076 ft | 449 kts | 5° |
| 2026-04-20 19:23 | -2.83213 | 36.15211 | 37073 ft | 449 kts | 5° |
| 2026-04-20 19:23 | -2.76990 | 36.15837 | 37071 ft | 449 kts | 5° |
| 2026-04-20 19:24 | -2.70776 | 36.16459 | 37074 ft | 449 kts | 5° |
| 2026-04-20 19:24 | -2.64562 | 36.17076 | 37072 ft | 449 kts | 5° |
| 2026-04-20 19:25 | -2.58353 | 36.17694 | 37076 ft | 448 kts | 5° |
| 2026-04-20 19:25 | -2.52145 | 36.18314 | 37074 ft | 448 kts | 5° |
| 2026-04-20 19:26 | -2.45938 | 36.18934 | 37074 ft | 448 kts | 5° |
| 2026-04-20 19:26 | -2.39735 | 36.19554 | 37074 ft | 448 kts | 5° |
| 2026-04-20 19:27 | -2.33527 | 36.20174 | 37075 ft | 448 kts | 5° |
| 2026-04-20 19:27 | -2.27320 | 36.20795 | 37074 ft | 448 kts | 5° |
| 2026-04-20 19:28 | -2.21116 | 36.21415 | 37076 ft | 448 kts | 5° |
| 2026-04-20 19:28 | -2.14907 | 36.22030 | 37073 ft | 448 kts | 5° |
| 2026-04-20 19:29 | -2.08706 | 36.22643 | 37076 ft | 448 kts | 5° |
| 2026-04-20 19:29 | -2.02492 | 36.23259 | 37072 ft | 448 kts | 5° |
| 2026-04-20 19:30 | -1.96287 | 36.23875 | 37075 ft | 448 kts | 5° |
| 2026-04-20 19:30 | -1.90079 | 36.24492 | 37074 ft | 448 kts | 5° |
| 2026-04-20 19:31 | -1.83919 | 36.25104 | 37074 ft | 448 kts | 5° |
| 2026-04-20 19:31 | -1.77711 | 36.25721 | 37074 ft | 448 kts | 5° |
| 2026-04-20 19:32 | -1.71505 | 36.26338 | 37074 ft | 448 kts | 5° |
| 2026-04-20 19:32 | -1.65299 | 36.26955 | 37074 ft | 448 kts | 5° |
| 2026-04-20 19:33 | -1.59092 | 36.27573 | 37074 ft | 448 kts | 5° |
| 2026-04-20 19:33 | -1.52881 | 36.28191 | 37074 ft | 448 kts | 5° |
| 2026-04-20 19:34 | -1.46680 | 36.28811 | 37073 ft | 448 kts | 5° |
| 2026-04-20 19:34 | -1.40472 | 36.29447 | 37074 ft | 448 kts | 5° |
| 2026-04-20 19:35 | -1.34264 | 36.30082 | 37074 ft | 448 kts | 5° |
| 2026-04-20 19:35 | -1.28061 | 36.30695 | 37074 ft | 448 kts | 5° |
| 2026-04-20 19:36 | -1.21853 | 36.31303 | 37073 ft | 448 kts | 5° |
| 2026-04-20 19:36 | -1.15647 | 36.31918 | 37076 ft | 448 kts | 5° |
| 2026-04-20 19:37 | -1.09437 | 36.32533 | 37074 ft | 448 kts | 5° |
| 2026-04-20 19:37 | -1.03230 | 36.33176 | 37072 ft | 448 kts | 5° |
| 2026-04-20 19:38 | -0.97025 | 36.33827 | 37076 ft | 448 kts | 5° |
| 2026-04-20 19:38 | -0.90829 | 36.34475 | 37073 ft | 448 kts | 5° |
| 2026-04-20 19:39 | -0.84625 | 36.35121 | 37075 ft | 448 kts | 5° |
| 2026-04-20 19:39 | -0.78417 | 36.35738 | 37072 ft | 448 kts | 5° |
| 2026-04-20 19:40 | -0.72218 | 36.36329 | 37075 ft | 448 kts | 5° |
| 2026-04-20 19:40 | -0.66011 | 36.36929 | 37074 ft | 448 kts | 5° |
| 2026-04-20 19:41 | -0.59806 | 36.37531 | 37074 ft | 448 kts | 5° |
| 2026-04-20 19:41 | -0.53651 | 36.38133 | 37075 ft | 448 kts | 5° |
| 2026-04-20 19:42 | -0.47450 | 36.38748 | 37074 ft | 448 kts | 5° |
| 2026-04-20 19:42 | -0.41258 | 36.39364 | 37078 ft | 448 kts | 5° |
| 2026-04-20 19:43 | -0.35056 | 36.39982 | 37072 ft | 448 kts | 5° |
| 2026-04-20 19:43 | -0.28854 | 36.40599 | 37074 ft | 448 kts | 5° |
| 2026-04-20 19:44 | -0.22656 | 36.41216 | 37074 ft | 448 kts | 5° |
| 2026-04-20 19:44 | -0.16456 | 36.41833 | 37074 ft | 448 kts | 5° |
| 2026-04-20 19:45 | -0.10253 | 36.42450 | 37073 ft | 448 kts | 5° |
| 2026-04-20 19:45 | -0.04062 | 36.43066 | 37076 ft | 448 kts | 5° |
| 2026-04-20 19:46 | 0.02139 | 36.43683 | 37072 ft | 448 kts | 5° |
| 2026-04-20 19:46 | 0.08337 | 36.44300 | 37074 ft | 448 kts | 5° |
| 2026-04-20 19:47 | 0.14539 | 36.44917 | 37074 ft | 448 kts | 5° |
| 2026-04-20 19:47 | 0.20734 | 36.45533 | 37075 ft | 448 kts | 5° |
| 2026-04-20 19:48 | 0.26924 | 36.46149 | 37074 ft | 448 kts | 5° |
| 2026-04-20 19:48 | 0.32081 | 36.46663 | 37073 ft | 448 kts | 5° |
| 2026-04-20 19:49 | 0.38277 | 36.47279 | 37073 ft | 447 kts | 5° |
| 2026-04-20 19:49 | 0.44472 | 36.47895 | 37075 ft | 447 kts | 5° |
| 2026-04-20 19:50 | 0.50666 | 36.48512 | 37074 ft | 447 kts | 5° |
| 2026-04-20 19:50 | 0.56861 | 36.49128 | 37074 ft | 447 kts | 5° |
| 2026-04-20 19:51 | 0.63059 | 36.49745 | 37074 ft | 447 kts | 5° |
| 2026-04-20 19:51 | 0.69249 | 36.50362 | 37075 ft | 447 kts | 5° |
| 2026-04-20 19:52 | 0.75447 | 36.50979 | 37074 ft | 447 kts | 5° |
| 2026-04-20 19:52 | 0.81649 | 36.51597 | 37074 ft | 447 kts | 5° |
| 2026-04-20 19:53 | 0.87843 | 36.52215 | 37076 ft | 448 kts | 5° |
| 2026-04-20 19:53 | 0.94034 | 36.52833 | 37071 ft | 448 kts | 5° |
| 2026-04-20 19:54 | 1.00223 | 36.53530 | 37068 ft | 448 kts | 11° |
| 2026-04-20 19:54 | 1.06234 | 36.55183 | 37073 ft | 448 kts | 16° |
| 2026-04-20 19:55 | 1.12192 | 36.57001 | 37073 ft | 448 kts | 16° |
| 2026-04-20 19:55 | 1.18139 | 36.58792 | 37077 ft | 448 kts | 16° |
| 2026-04-20 19:56 | 1.24095 | 36.60571 | 37074 ft | 448 kts | 16° |
| 2026-04-20 19:56 | 1.30101 | 36.62343 | 37074 ft | 448 kts | 16° |
| 2026-04-20 19:57 | 1.36083 | 36.64100 | 37075 ft | 448 kts | 16° |
| 2026-04-20 19:57 | 1.42064 | 36.65858 | 37072 ft | 448 kts | 16° |
| 2026-04-20 19:58 | 1.48053 | 36.67620 | 37077 ft | 448 kts | 16° |
| 2026-04-20 19:58 | 1.54035 | 36.69380 | 37072 ft | 448 kts | 16° |
| 2026-04-20 19:59 | 1.60010 | 36.71138 | 37073 ft | 448 kts | 16° |
| 2026-04-20 19:59 | 1.65999 | 36.72900 | 37074 ft | 448 kts | 16° |
| 2026-04-20 20:00 | 1.71974 | 36.74659 | 37074 ft | 448 kts | 16° |
| 2026-04-20 20:00 | 1.77948 | 36.76417 | 37074 ft | 448 kts | 16° |
| 2026-04-20 20:01 | 1.83930 | 36.78177 | 37074 ft | 448 kts | 16° |
| 2026-04-20 20:01 | 1.89900 | 36.79935 | 37074 ft | 448 kts | 16° |
| 2026-04-20 20:02 | 1.95881 | 36.81695 | 37074 ft | 448 kts | 16° |
| 2026-04-20 20:02 | 2.01858 | 36.83455 | 37074 ft | 447 kts | 16° |
| 2026-04-20 20:03 | 2.07830 | 36.85213 | 37074 ft | 448 kts | 16° |
| 2026-04-20 20:03 | 2.13765 | 36.86960 | 37074 ft | 447 kts | 16° |
| 2026-04-20 20:04 | 2.19729 | 36.88716 | 37074 ft | 447 kts | 16° |
| 2026-04-20 20:04 | 2.25702 | 36.90475 | 37074 ft | 447 kts | 16° |
| 2026-04-20 20:05 | 2.31675 | 36.92234 | 37073 ft | 447 kts | 16° |
| 2026-04-20 20:05 | 2.37647 | 36.93993 | 37075 ft | 447 kts | 16° |
| 2026-04-20 20:06 | 2.43620 | 36.95753 | 37074 ft | 447 kts | 16° |
| 2026-04-20 20:06 | 2.49603 | 36.97515 | 37075 ft | 447 kts | 16° |
| 2026-04-20 20:07 | 2.55577 | 36.99275 | 37074 ft | 447 kts | 16° |
| 2026-04-20 20:07 | 2.61542 | 37.01033 | 37073 ft | 447 kts | 16° |
| 2026-04-20 20:08 | 2.67524 | 37.02795 | 37074 ft | 447 kts | 16° |
| 2026-04-20 20:08 | 2.73486 | 37.04552 | 37075 ft | 447 kts | 16° |
| 2026-04-20 20:09 | 2.79464 | 37.06314 | 37074 ft | 447 kts | 16° |
| 2026-04-20 20:09 | 2.85438 | 37.08075 | 37074 ft | 447 kts | 16° |
| 2026-04-20 20:10 | 2.91408 | 37.09835 | 37073 ft | 448 kts | 16° |
| 2026-04-20 20:10 | 2.97382 | 37.11597 | 37075 ft | 448 kts | 16° |
| 2026-04-20 20:11 | 3.03364 | 37.13360 | 37074 ft | 448 kts | 16° |
| 2026-04-20 20:11 | 3.09335 | 37.15121 | 37073 ft | 448 kts | 16° |
| 2026-04-20 20:12 | 3.15309 | 37.16883 | 37074 ft | 448 kts | 16° |
| 2026-04-20 20:12 | 3.21282 | 37.18645 | 37074 ft | 447 kts | 16° |
| 2026-04-20 20:13 | 3.30196 | 37.21275 | 37073 ft | 447 kts | 16° |
| 2026-04-20 20:13 | 3.36172 | 37.23038 | 37075 ft | 447 kts | 16° |
| 2026-04-20 20:14 | 3.42140 | 37.24799 | 37073 ft | 447 kts | 16° |
| 2026-04-20 20:14 | 3.48111 | 37.26561 | 37074 ft | 447 kts | 16° |
| 2026-04-20 20:15 | 3.54067 | 37.28320 | 37075 ft | 447 kts | 16° |
| 2026-04-20 20:15 | 3.60063 | 37.30090 | 37075 ft | 447 kts | 16° |
| 2026-04-20 20:16 | 3.66027 | 37.31851 | 37074 ft | 447 kts | 16° |
| 2026-04-20 20:16 | 3.72001 | 37.33615 | 37073 ft | 447 kts | 16° |
| 2026-04-20 20:17 | 3.77963 | 37.35376 | 37075 ft | 447 kts | 16° |
| 2026-04-20 20:17 | 3.83933 | 37.37139 | 37074 ft | 447 kts | 16° |
| 2026-04-20 20:18 | 3.89862 | 37.38891 | 37074 ft | 447 kts | 16° |
| 2026-04-20 20:18 | 3.95826 | 37.40654 | 37074 ft | 447 kts | 16° |
| 2026-04-20 20:19 | 4.01816 | 37.42345 | 37073 ft | 447 kts | 13° |
| 2026-04-20 20:19 | 4.07895 | 37.43623 | 37074 ft | 447 kts | 10° |
| 2026-04-20 20:20 | 4.14000 | 37.44803 | 37072 ft | 447 kts | 11° |
| 2026-04-20 20:20 | 4.20098 | 37.46017 | 37073 ft | 447 kts | 11° |
| 2026-04-20 20:21 | 4.26185 | 37.47261 | 37074 ft | 447 kts | 11° |
| 2026-04-20 20:21 | 4.32273 | 37.48518 | 37074 ft | 447 kts | 11° |
| 2026-04-20 20:22 | 4.38361 | 37.49777 | 37074 ft | 447 kts | 11° |
| 2026-04-20 20:22 | 4.44450 | 37.51036 | 37074 ft | 447 kts | 11° |
| 2026-04-20 20:23 | 4.50538 | 37.52294 | 37074 ft | 447 kts | 11° |
| 2026-04-20 20:23 | 4.56624 | 37.53551 | 37074 ft | 447 kts | 11° |
| 2026-04-20 20:24 | 4.62708 | 37.54809 | 37075 ft | 447 kts | 11° |
| 2026-04-20 20:24 | 4.68797 | 37.56067 | 37073 ft | 447 kts | 11° |
| 2026-04-20 20:25 | 4.74884 | 37.57325 | 37074 ft | 447 kts | 11° |
| 2026-04-20 20:25 | 4.80968 | 37.58584 | 37074 ft | 447 kts | 11° |
| 2026-04-20 20:26 | 4.87056 | 37.59843 | 37074 ft | 446 kts | 11° |
| 2026-04-20 20:26 | 4.93140 | 37.61101 | 37073 ft | 446 kts | 11° |
| 2026-04-20 20:27 | 4.99224 | 37.62360 | 37075 ft | 446 kts | 11° |
| 2026-04-20 20:27 | 5.05309 | 37.63619 | 37072 ft | 447 kts | 11° |
| 2026-04-20 20:28 | 5.11389 | 37.64877 | 37075 ft | 446 kts | 11° |
| 2026-04-20 20:28 | 5.17478 | 37.66138 | 37074 ft | 446 kts | 11° |
| 2026-04-20 20:29 | 5.23555 | 37.67396 | 37074 ft | 446 kts | 11° |
| 2026-04-20 20:29 | 5.29640 | 37.68656 | 37073 ft | 447 kts | 11° |
| 2026-04-20 20:30 | 5.35727 | 37.69917 | 37075 ft | 446 kts | 11° |
| 2026-04-20 20:30 | 5.41813 | 37.71178 | 37074 ft | 446 kts | 11° |
| 2026-04-20 20:31 | 5.47900 | 37.72439 | 37075 ft | 446 kts | 11° |
| 2026-04-20 20:31 | 5.53984 | 37.73700 | 37072 ft | 447 kts | 11° |
| 2026-04-20 20:32 | 5.59041 | 37.74748 | 37073 ft | 446 kts | 11° |
| 2026-04-20 20:32 | 5.65127 | 37.76010 | 37077 ft | 446 kts | 11° |
| 2026-04-20 20:33 | 5.71211 | 37.77272 | 37074 ft | 447 kts | 11° |
| 2026-04-20 20:33 | 5.77300 | 37.78535 | 37074 ft | 447 kts | 11° |
| 2026-04-20 20:34 | 5.83388 | 37.79798 | 37071 ft | 447 kts | 11° |
| 2026-04-20 20:34 | 5.89467 | 37.81060 | 37077 ft | 446 kts | 11° |
| 2026-04-20 20:35 | 5.95556 | 37.82324 | 37071 ft | 447 kts | 11° |
| 2026-04-20 20:35 | 6.01641 | 37.83587 | 37073 ft | 446 kts | 11° |
| 2026-04-20 20:36 | 6.07718 | 37.84849 | 37074 ft | 446 kts | 11° |
| 2026-04-20 20:36 | 6.13801 | 37.86112 | 37073 ft | 446 kts | 11° |
| 2026-04-20 20:37 | 6.19882 | 37.87376 | 37073 ft | 446 kts | 11° |
| 2026-04-20 20:37 | 6.25950 | 37.88637 | 37073 ft | 446 kts | 11° |
| 2026-04-20 20:38 | 6.31985 | 37.89890 | 37074 ft | 446 kts | 11° |
| 2026-04-20 20:38 | 6.38097 | 37.91161 | 37074 ft | 445 kts | 11° |
| 2026-04-20 20:39 | 6.44127 | 37.92416 | 37073 ft | 445 kts | 11° |
| 2026-04-20 20:39 | 6.50197 | 37.93679 | 37075 ft | 445 kts | 11° |
| 2026-04-20 20:40 | 6.56307 | 37.94950 | 37074 ft | 445 kts | 11° |
| 2026-04-20 20:40 | 6.62339 | 37.96205 | 37074 ft | 445 kts | 11° |
| 2026-04-20 20:41 | 6.68403 | 37.97467 | 37073 ft | 446 kts | 11° |
| 2026-04-20 20:41 | 6.74478 | 37.98732 | 37074 ft | 446 kts | 11° |
| 2026-04-20 20:42 | 6.80552 | 37.99997 | 37073 ft | 446 kts | 11° |
| 2026-04-20 20:42 | 6.86623 | 38.01262 | 37074 ft | 446 kts | 11° |
| 2026-04-20 20:43 | 6.92696 | 38.02527 | 37075 ft | 446 kts | 11° |
| 2026-04-20 20:43 | 6.98760 | 38.03791 | 37071 ft | 446 kts | 11° |
| 2026-04-20 20:44 | 7.04849 | 38.05061 | 37075 ft | 446 kts | 11° |
| 2026-04-20 20:44 | 7.10927 | 38.06328 | 37072 ft | 446 kts | 11° |
| 2026-04-20 20:45 | 7.17009 | 38.07597 | 37074 ft | 446 kts | 11° |
| 2026-04-20 20:45 | 7.23080 | 38.08864 | 37074 ft | 446 kts | 11° |
| 2026-04-20 20:46 | 7.29156 | 38.10132 | 37074 ft | 446 kts | 11° |
| 2026-04-20 20:46 | 7.35236 | 38.11401 | 37073 ft | 446 kts | 11° |
| 2026-04-20 20:47 | 7.41301 | 38.12668 | 37075 ft | 446 kts | 11° |
| 2026-04-20 20:47 | 7.47384 | 38.13939 | 37073 ft | 446 kts | 11° |
| 2026-04-20 20:48 | 7.53452 | 38.15207 | 37074 ft | 446 kts | 11° |
| 2026-04-20 20:48 | 7.59531 | 38.16477 | 37074 ft | 446 kts | 11° |
| 2026-04-20 20:49 | 7.65602 | 38.17746 | 37073 ft | 446 kts | 11° |
| 2026-04-20 20:49 | 7.71672 | 38.19016 | 37074 ft | 446 kts | 11° |
| 2026-04-20 20:50 | 7.77739 | 38.20285 | 37074 ft | 446 kts | 11° |
| 2026-04-20 20:50 | 7.83777 | 38.21549 | 37073 ft | 446 kts | 11° |
| 2026-04-20 20:51 | 7.89841 | 38.22818 | 37075 ft | 445 kts | 11° |
| 2026-04-20 20:51 | 7.95913 | 38.24089 | 36730 ft | 449 kts | 11° |
| 2026-04-20 20:52 | 7.98967 | 38.24729 | 36206 ft | 446 kts | 11° |
| 2026-04-20 20:52 | 8.01999 | 38.25364 | 35554 ft | 445 kts | 11° |
| 2026-04-20 20:52 | 8.05026 | 38.25999 | 34872 ft | 444 kts | 11° |
| 2026-04-20 20:52 | 8.08034 | 38.26629 | 34392 ft | 439 kts | 11° |
| 2026-04-20 20:53 | 8.11006 | 38.27251 | 33891 ft | 434 kts | 11° |
| 2026-04-20 20:53 | 8.13946 | 38.27864 | 33399 ft | 430 kts | 11° |
| 2026-04-20 20:53 | 8.16884 | 38.28255 | 32868 ft | 425 kts | 356° |
| 2026-04-20 20:53 | 8.19748 | 38.27656 | 32417 ft | 418 kts | 337° |
| 2026-04-20 20:54 | 8.22244 | 38.26220 | 31953 ft | 412 kts | 320° |
| 2026-04-20 20:54 | 8.24207 | 38.24145 | 31486 ft | 407 kts | 304° |
| 2026-04-20 20:54 | 8.25492 | 38.21628 | 31020 ft | 403 kts | 288° |
| 2026-04-20 20:54 | 8.26073 | 38.18883 | 30569 ft | 399 kts | 274° |
| 2026-04-20 20:55 | 8.25926 | 38.16108 | 30100 ft | 395 kts | 259° |
| 2026-04-20 20:55 | 8.25312 | 38.13424 | 29668 ft | 391 kts | 256° |
| 2026-04-20 20:55 | 8.24647 | 38.10774 | 29150 ft | 388 kts | 258° |
| 2026-04-20 20:55 | 8.24672 | 38.08075 | 28606 ft | 386 kts | 286° |
| 2026-04-20 20:56 | 8.25862 | 38.05696 | 28236 ft | 379 kts | 311° |
| 2026-04-20 20:56 | 8.27923 | 38.04105 | 27864 ft | 374 kts | 336° |
| 2026-04-20 20:56 | 8.30430 | 38.03471 | 27448 ft | 371 kts | 351° |
| 2026-04-20 20:56 | 8.32948 | 38.02959 | 26980 ft | 368 kts | 341° |
| 2026-04-20 20:57 | 8.35251 | 38.01879 | 26545 ft | 364 kts | 327° |
| 2026-04-20 20:57 | 8.37314 | 38.00423 | 26106 ft | 360 kts | 323° |
| 2026-04-20 20:57 | 8.39463 | 37.99142 | 25662 ft | 358 kts | 334° |
| 2026-04-20 20:57 | 8.41733 | 37.98118 | 25240 ft | 357 kts | 336° |
| 2026-04-20 20:58 | 8.44016 | 37.97103 | 24801 ft | 359 kts | 335° |
| 2026-04-20 20:58 | 8.46386 | 37.96281 | 24315 ft | 365 kts | 351° |
| 2026-04-20 20:58 | 8.48894 | 37.96341 | 23887 ft | 370 kts | 12° |
| 2026-04-20 20:58 | 8.51268 | 37.97326 | 23417 ft | 371 kts | 34° |
| 2026-04-20 20:59 | 8.53117 | 37.99103 | 22956 ft | 367 kts | 54° |
| 2026-04-20 20:59 | 8.54304 | 38.01363 | 22510 ft | 363 kts | 66° |
| 2026-04-20 20:59 | 8.55274 | 38.03704 | 22035 ft | 360 kts | 67° |
| 2026-04-20 20:59 | 8.56231 | 38.06026 | 21569 ft | 357 kts | 67° |
| 2026-04-20 21:00 | 8.57198 | 38.08314 | 21109 ft | 354 kts | 66° |
| 2026-04-20 21:00 | 8.58099 | 38.10616 | 20640 ft | 351 kts | 72° |
| 2026-04-20 21:00 | 8.58779 | 38.12973 | 20200 ft | 347 kts | 75° |
| 2026-04-20 21:00 | 8.59391 | 38.15322 | 19747 ft | 344 kts | 75° |
| 2026-04-20 21:01 | 8.59997 | 38.17649 | 19301 ft | 341 kts | 75° |
| 2026-04-20 21:01 | 8.60611 | 38.19958 | 18855 ft | 338 kts | 74° |
| 2026-04-20 21:01 | 8.61232 | 38.22240 | 18410 ft | 336 kts | 74° |
| 2026-04-20 21:01 | 8.61855 | 38.24503 | 17966 ft | 333 kts | 74° |
| 2026-04-20 21:02 | 8.62481 | 38.26747 | 17528 ft | 330 kts | 74° |
| 2026-04-20 21:02 | 8.63104 | 38.28974 | 17092 ft | 328 kts | 74° |
| 2026-04-20 21:02 | 8.63716 | 38.31183 | 16656 ft | 325 kts | 74° |
| 2026-04-20 21:02 | 8.64325 | 38.33374 | 16217 ft | 323 kts | 74° |
| 2026-04-20 21:03 | 8.64931 | 38.35552 | 15780 ft | 321 kts | 74° |
| 2026-04-20 21:03 | 8.65533 | 38.37716 | 15348 ft | 319 kts | 74° |
| 2026-04-20 21:03 | 8.66131 | 38.39865 | 14918 ft | 316 kts | 74° |
| 2026-04-20 21:03 | 8.66724 | 38.41996 | 14557 ft | 312 kts | 74° |
| 2026-04-20 21:04 | 8.67298 | 38.44062 | 14412 ft | 300 kts | 74° |
| 2026-04-20 21:04 | 8.67862 | 38.46089 | 14044 ft | 298 kts | 74° |
| 2026-04-20 21:04 | 8.68415 | 38.48071 | 13867 ft | 288 kts | 72° |
| 2026-04-20 21:04 | 8.69341 | 38.49813 | 13682 ft | 278 kts | 47° |
| 2026-04-20 21:05 | 8.70836 | 38.51001 | 13421 ft | 272 kts | 28° |
| 2026-04-20 21:05 | 8.72493 | 38.51893 | 13171 ft | 270 kts | 26° |
| 2026-04-20 21:05 | 8.74141 | 38.52756 | 12911 ft | 270 kts | 26° |
| 2026-04-20 21:05 | 8.75807 | 38.53636 | 12647 ft | 270 kts | 27° |
| 2026-04-20 21:06 | 8.77467 | 38.54521 | 12377 ft | 270 kts | 27° |
| 2026-04-20 21:06 | 8.79122 | 38.55408 | 12112 ft | 269 kts | 27° |
| 2026-04-20 21:06 | 8.80771 | 38.56294 | 11846 ft | 268 kts | 27° |
| 2026-04-20 21:06 | 8.82411 | 38.57185 | 11579 ft | 267 kts | 30° |
| 2026-04-20 21:07 | 8.83906 | 38.58293 | 11315 ft | 266 kts | 39° |
| 2026-04-20 21:07 | 8.85302 | 38.59492 | 11054 ft | 262 kts | 39° |
| 2026-04-20 21:07 | 8.86685 | 38.60679 | 10791 ft | 258 kts | 39° |
| 2026-04-20 21:07 | 8.88061 | 38.61821 | 10535 ft | 254 kts | 36° |
| 2026-04-20 21:08 | 8.89483 | 38.62869 | 10286 ft | 251 kts | 34° |
| 2026-04-20 21:08 | 8.90885 | 38.63888 | 10038 ft | 245 kts | 35° |
| 2026-04-20 21:08 | 8.92234 | 38.64892 | 9810 ft | 234 kts | 41° |
| 2026-04-20 21:08 | 8.93174 | 38.66183 | 9488 ft | 225 kts | 62° |
| 2026-04-20 21:09 | 8.93844 | 38.67543 | 9392 ft | 206 kts | 63° |
| 2026-04-20 21:09 | 8.94386 | 38.68822 | 9198 ft | 195 kts | 72° |
| 2026-04-20 21:09 | 8.94774 | 38.70108 | 8983 ft | 187 kts | 71° |
| 2026-04-20 21:09 | 8.95173 | 38.71338 | 8718 ft | 182 kts | 72° |
| 2026-04-20 21:10 | 8.95511 | 38.72560 | 8537 ft | 180 kts | 73° |
| 2026-04-20 21:10 | 8.95866 | 38.73773 | 8378 ft | 180 kts | 72° |
| 2026-04-20 21:10 | 8.96221 | 38.74971 | 8260 ft | 174 kts | 75° |
| 2026-04-20 21:10 | 8.96551 | 38.76088 | 8164 ft | 158 kts | 74° |
| 2026-04-20 21:11 | 8.96865 | 38.77145 | 7951 ft | 157 kts | 74° |
| 2026-04-20 21:11 | 8.97182 | 38.78204 | 7744 ft | 157 kts | 74° |
| 2026-04-20 21:11 | 8.97486 | 38.79236 | 7647 ft | 143 kts | 73° |
| 2026-04-20 21:11 | 8.97770 | 38.80219 | 7918 ft | 155 kts | 75° |
| 2026-04-20 21:12 | 8.98065 | 38.81351 | 8656 ft | 181 kts | 76° |
| 2026-04-20 21:12 | 8.98384 | 38.82688 | 9250 ft | 207 kts | 76° |
| 2026-04-20 21:12 | 8.98741 | 38.84145 | 9767 ft | 218 kts | 75° |
| 2026-04-20 21:12 | 8.98888 | 38.85674 | 10308 ft | 226 kts | 103° |
| 2026-04-20 21:13 | 8.98070 | 38.87054 | 10664 ft | 239 kts | 142° |
| 2026-04-20 21:13 | 8.96566 | 38.87818 | 11034 ft | 250 kts | 165° |
| 2026-04-20 21:13 | 8.94820 | 38.88293 | 11273 ft | 270 kts | 166° |
| 2026-04-20 21:13 | 8.92925 | 38.88735 | 11456 ft | 290 kts | 175° |
| 2026-04-20 21:14 | 8.90928 | 38.88519 | 11599 ft | 285 kts | 201° |
| 2026-04-20 21:14 | 8.89220 | 38.87662 | 11705 ft | 266 kts | 211° |
| 2026-04-20 21:14 | 8.87670 | 38.86731 | 11719 ft | 252 kts | 212° |
| 2026-04-20 21:14 | 8.86289 | 38.85688 | 11736 ft | 247 kts | 231° |
| 2026-04-20 21:15 | 8.85489 | 38.84170 | 11770 ft | 247 kts | 250° |
| 2026-04-20 21:15 | 8.84922 | 38.82520 | 11760 ft | 249 kts | 252° |
| 2026-04-20 21:15 | 8.84384 | 38.80873 | 11775 ft | 248 kts | 252° |
| 2026-04-20 21:15 | 8.83847 | 38.79223 | 11980 ft | 251 kts | 250° |
| 2026-04-20 21:16 | 8.83148 | 38.77548 | 12206 ft | 260 kts | 246° |
| 2026-04-20 21:16 | 8.82400 | 38.75878 | 12243 ft | 262 kts | 246° |
| 2026-04-20 21:16 | 8.81675 | 38.74185 | 12249 ft | 263 kts | 247° |
| 2026-04-20 21:16 | 8.80946 | 38.72399 | 12291 ft | 299 kts | 248° |
| 2026-04-20 21:17 | 8.80125 | 38.70329 | 12274 ft | 326 kts | 248° |
| 2026-04-20 21:17 | 8.79289 | 38.68179 | 12253 ft | 330 kts | 251° |
| 2026-04-20 21:17 | 8.78939 | 38.65915 | 12254 ft | 324 kts | 272° |
| 2026-04-20 21:17 | 8.79397 | 38.63753 | 12241 ft | 307 kts | 292° |
| 2026-04-20 21:18 | 8.80540 | 38.62033 | 12241 ft | 289 kts | 318° |
| 2026-04-20 21:18 | 8.82205 | 38.61035 | 12241 ft | 273 kts | 339° |
| 2026-04-20 21:18 | 8.84019 | 38.60604 | 11900 ft | 271 kts | 355° |
| 2026-04-20 21:18 | 8.85923 | 38.60774 | 11442 ft | 274 kts | 9° |
| 2026-04-20 21:19 | 8.87681 | 38.61452 | 11131 ft | 269 kts | 34° |
| 2026-04-20 21:19 | 8.89167 | 38.62549 | 10818 ft | 263 kts | 36° |
| 2026-04-20 21:19 | 8.90621 | 38.63641 | 10530 ft | 257 kts | 36° |
| 2026-04-20 21:20 | 8.93109 | 38.66111 | 9967 ft | 250 kts | 63° |
| 2026-04-20 21:20 | 8.93841 | 38.67692 | 9710 ft | 248 kts | 65° |
| 2026-04-20 21:20 | 8.94328 | 38.68740 | 9493 ft | 246 kts | 65° |
| 2026-04-20 21:20 | 8.94919 | 38.70351 | 9137 ft | 243 kts | 73° |
| 2026-04-20 21:21 | 8.95371 | 38.71979 | 8794 ft | 236 kts | 73° |
| 2026-04-20 21:21 | 8.95809 | 38.73492 | 8500 ft | 214 kts | 73° |
| 2026-04-20 21:21 | 8.96336 | 38.75288 | 8180 ft | 183 kts | 73° |
| 2026-04-20 21:21 | 8.96674 | 38.76450 | 7921 ft | 162 kts | 73° |
| 2026-04-20 21:22 | 8.96977 | 38.77506 | 7792 ft | 153 kts | 73° |
| 2026-04-20 21:22 | 8.97275 | 38.78518 | 7666 ft | 147 kts | 73° |
| 2026-04-20 21:22 | 8.97470 | 38.79169 | 7638 ft | 136 kts | 73° |
| 2026-04-20 21:22 | 8.97680 | 38.79881 | 7639 ft | 75 kts | 73° |
| 2026-04-20 21:23 | 8.97782 | 38.80230 | 7639 ft | 41 kts | 73° |
| 2026-04-20 21:23 | 8.97861 | 38.80493 | 7635 ft | 38 kts | 69° |
| 2026-04-20 21:23 | 8.97972 | 38.80647 | 7634 ft | 14 kts | 40° |
| 2026-04-20 21:23 | 8.98034 | 38.80720 | 7634 ft | 13 kts | 45° |
| 2026-04-20 21:24 | 8.98111 | 38.80721 | 7634 ft | 13 kts | 318° |
| 2026-04-20 21:24 | 8.98194 | 38.80720 | 7634 ft | 13 kts | 24° |
| 2026-04-20 21:24 | 8.98268 | 38.80723 | 7642 ft | 11 kts | 291° |
| 2026-04-20 21:24 | 8.98250 | 38.80648 | 7644 ft | 11 kts | 253° |
| 2026-04-20 21:25 | 8.98229 | 38.80575 | 7640 ft | 11 kts | 253° |
| 2026-04-20 21:25 | 8.98208 | 38.80505 | 7642 ft | 10 kts | 253° |
| 2026-04-20 21:25 | 8.98188 | 38.80436 | 7642 ft | 10 kts | 253° |
| 2026-04-20 21:25 | 8.98169 | 38.80369 | 7639 ft | 10 kts | 253° |
| 2026-04-20 21:26 | 8.98152 | 38.80302 | 7639 ft | 10 kts | 269° |
| 2026-04-20 21:26 | 8.98178 | 38.80240 | 7641 ft | 10 kts | 295° |
| 2026-04-20 21:26 | 8.98171 | 38.80176 | 7642 ft | 9 kts | 256° |
| 2026-04-20 21:26 | 8.98191 | 38.80122 | 7642 ft | 9 kts | 334° |
| 2026-04-20 21:27 | 8.98248 | 38.80099 | 7644 ft | 9 kts | 335° |
| 2026-04-20 21:27 | 8.98285 | 38.80053 | 7645 ft | 9 kts | 268° |
| 2026-04-20 21:27 | 8.98266 | 38.79984 | 7644 ft | 11 kts | 253° |
| 2026-04-20 21:27 | 8.98242 | 38.79902 | 7643 ft | 13 kts | 253° |
| 2026-04-20 21:28 | 8.98215 | 38.79812 | 7642 ft | 14 kts | 253° |
| 2026-04-20 21:28 | 8.98171 | 38.79719 | 7646 ft | 15 kts | 221° |
| 2026-04-20 21:28 | 8.98112 | 38.79636 | 7643 ft | 16 kts | 254° |
| 2026-04-20 21:28 | 8.98080 | 38.79526 | 7642 ft | 17 kts | 253° |
| 2026-04-20 21:29 | 8.98052 | 38.79419 | 7642 ft | 9 kts | 271° |
| 2026-04-20 21:29 | 8.98105 | 38.79389 | 7645 ft | 9 kts | 343° |
| 2026-04-20 21:29 | 8.98148 | 38.79376 | 7644 ft | 2 kts | 343° |
| 2026-04-20 21:29 | 8.98149 | 38.79376 | 7644 ft | 0 kts | 343° |